Sam Holmes — WDH8629 — position and weather

sailwx.info

Track history (hours):
 
Tides and Currents Weather Stations Pressure Air Temp Water Temp Dewpoint Dewpoint Depression Visibility Wind Speed Wind Dir Waves Ship Positions

Sam Holmes

Owner: NYCL Acquisition LLC, Brooklyn, NY. More information available from US FCC via Universal Licensing System and Coast Guard Vessel Documentation Center.

Last reported at 2017-Nov-24 16:30 UTC. Time now 2017-Nov-24 16:48 UTC.
Position N 40°41' W 074°03'.

Type: Passenger vessel. MMSI: 367659970.

Date/timePositionNaut miles runAvg speedWind from/ knotsBaromVisibWave heightAir tempDewpointWater temp
2017-Nov-24 16:30N 40°41' W 074°03'2 4.1
2017-Nov-24 16:00N 40°42' W 074°00'2 4.1
2017-Nov-24 15:30N 40°40' W 074°01'0 0.0
2017-Nov-24 15:00N 40°40' W 074°01'0 0.0
2017-Nov-24 14:30N 40°40' W 074°01'0 0.0
2017-Nov-22 19:04N 40°40' W 074°01'  
2017-Nov-19 20:25N 40°40' W 074°01'3 6.5
2017-Nov-19 20:01N 40°43' W 074°01'2 4.3
2017-Nov-19 19:31N 40°41' W 074°03'2 4.1
2017-Nov-19 19:00N 40°42' W 074°00'3 6.1
2017-Nov-19 18:30N 40°45' W 074°01'3 6.2
2017-Nov-19 18:00N 40°42' W 073°60'2 3.3
2017-Nov-19 17:31N 40°43' W 074°01'2 3.8
2017-Nov-19 17:01N 40°42' W 074°02'1 1.6
2017-Nov-19 16:31N 40°42' W 074°01'1 1.9
2017-Nov-19 16:00N 40°43' W 074°01'1 2.7
2017-Nov-19 15:30N 40°42' W 074°00'3 6.6
2017-Nov-19 15:00N 40°46' W 074°00'510.7
2017-Nov-19 14:31N 40°40' W 074°01'0 0.0
2017-Nov-19 14:01N 40°40' W 074°01'0 0.0
2017-Nov-19 01:57N 40°40' W 074°01'2 4.6
2017-Nov-19 01:30N 40°42' W 074°00'1 2.6
2017-Nov-19 01:00N 40°42' W 074°02'1 2.6
2017-Nov-19 00:30N 40°42' W 074°00'0 0.0
2017-Nov-19 00:00N 40°42' W 074°00'0 0.0
2017-Nov-18 23:30N 40°42' W 074°00'0 0.0
2017-Nov-18 23:00N 40°42' W 074°00'2 3.3
2017-Nov-18 22:30N 40°42' W 074°02'2 3.3
2017-Nov-18 22:00N 40°42' W 074°00'0 0.0
2017-Nov-18 21:30N 40°42' W 074°00'1 2.5
2017-Nov-18 21:00N 40°43' W 074°02'1 2.5
2017-Nov-18 20:30N 40°42' W 074°00'0 0.0
2017-Nov-18 20:00N 40°42' W 074°00'1 2.7
2017-Nov-18 19:30N 40°42' W 074°02'1 2.7
2017-Nov-18 19:00N 40°42' W 074°00'0 0.0
2017-Nov-18 18:30N 40°42' W 074°00'2 3.3
2017-Nov-18 18:00N 40°42' W 074°02'2 3.3
2017-Nov-18 17:30N 40°42' W 074°00'0 0.0
2017-Nov-18 17:00N 40°42' W 074°00'1 2.5
2017-Nov-18 16:30N 40°42' W 074°02'1 2.5
2017-Nov-18 16:00N 40°42' W 074°00'2 4.1
2017-Nov-18 15:30N 40°40' W 074°01'0 0.0
2017-Nov-18 01:58N 40°40' W 074°01'2 4.5
2017-Nov-18 01:30N 40°42' W 074°00'1 2.7
2017-Nov-18 01:01N 40°43' W 074°02'1 2.7
2017-Nov-18 00:30N 40°42' W 074°00'0 0.0
2017-Nov-18 00:00N 40°42' W 074°00'0 0.0
2017-Nov-17 23:30N 40°42' W 074°00'0 0.0
2017-Nov-17 23:00N 40°42' W 074°00'1 2.4
2017-Nov-17 22:30N 40°43' W 074°02'1 2.4
2017-Nov-17 22:00N 40°42' W 074°00'0 0.0
2017-Nov-17 21:30N 40°42' W 074°00'1 2.5
2017-Nov-17 21:00N 40°43' W 074°02'1 2.5
2017-Nov-17 20:30N 40°42' W 074°00'0 0.0
2017-Nov-17 20:00N 40°42' W 074°00'1 2.5
2017-Nov-17 19:30N 40°42' W 074°02'1 2.5
2017-Nov-17 19:00N 40°42' W 074°00'0 0.0
2017-Nov-17 18:30N 40°42' W 074°00'1 2.5
2017-Nov-17 18:00N 40°43' W 074°02'1 2.5
2017-Nov-17 17:30N 40°42' W 074°00'0 0.0
2017-Nov-17 17:00N 40°42' W 074°00'1 2.5
2017-Nov-17 16:30N 40°43' W 074°02'1 2.5
2017-Nov-17 16:00N 40°42' W 074°00'2 4.2
2017-Nov-17 15:31N 40°40' W 074°01'0 0.0
2017-Nov-17 15:01N 40°40' W 074°01'0 0.0
2017-Nov-17 01:55N 40°40' W 074°01'2 5.1
2017-Nov-17 01:30N 40°42' W 074°00'1 2.6
2017-Nov-17 01:00N 40°43' W 074°02'1 2.6
2017-Nov-17 00:30N 40°42' W 074°00'2 4.1
2017-Nov-17 00:01N 40°40' W 074°01'0 0.0
2017-Nov-16 23:30N 40°40' W 074°01'0 0.0
2017-Nov-16 23:00N 40°40' W 074°01'2 3.2
2017-Nov-16 22:30N 40°42' W 074°00'0 1.0
2017-Nov-16 22:00N 40°42' W 074°00'0 0.0
2017-Nov-16 21:30N 40°42' W 074°00'2 3.2
2017-Nov-16 21:00N 40°42' W 074°02'2 3.1
2017-Nov-16 20:30N 40°42' W 074°00'0 0.0
2017-Nov-16 20:00N 40°42' W 074°00'1 2.5
2017-Nov-16 19:30N 40°43' W 074°02'1 2.5
2017-Nov-16 19:00N 40°42' W 074°00'0 0.0
2017-Nov-16 18:30N 40°42' W 074°00'2 3.2
2017-Nov-16 18:00N 40°42' W 074°02'2 3.2
2017-Nov-16 17:30N 40°42' W 074°00'0 0.0
2017-Nov-16 17:00N 40°42' W 074°00'1 2.5
2017-Nov-16 16:30N 40°42' W 074°02'1 2.6
2017-Nov-16 16:01N 40°42' W 074°00'2 0.1
2017-Nov-16 01:10N 40°40' W 074°01'0 2.7
2017-Nov-16 01:01N 40°41' W 074°01'1 1.2
2017-Nov-16 00:30N 40°40' W 074°01'0 0.5
2017-Nov-16 00:00N 40°40' W 074°01'2 3.8
2017-Nov-15 23:30N 40°42' W 074°00'2 4.0
2017-Nov-15 23:01N 40°40' W 074°01'0 0.2
2017-Nov-15 22:31N 40°40' W 074°01'2 3.8
2017-Nov-15 22:00N 40°42' W 074°00'2 4.0
2017-Nov-15 21:30N 40°40' W 074°01'0 0.5
2017-Nov-15 21:00N 40°40' W 074°01'2 3.8
2017-Nov-15 20:30N 40°42' W 074°00'2 3.7
2017-Nov-15 20:01N 40°40' W 074°01'0 0.3
2017-Nov-15 19:31N 40°40' W 074°01'2 3.7
2017-Nov-15 19:00N 40°42' W 074°00'2 0.3
2017-Nov-15 12:51N 40°40' W 074°01'0 0.0
2017-Nov-15 12:30N 40°40' W 074°01'0 0.0
2017-Nov-15 01:58N 40°40' W 074°01'1 2.8
2017-Nov-15 01:30N 40°42' W 074°02'2 3.3
2017-Nov-15 01:00N 40°43' W 074°01'1 2.6
2017-Nov-15 00:30N 40°42' W 074°00'2 4.1
2017-Nov-15 00:00N 40°40' W 074°01'0 0.0
2017-Nov-14 23:30N 40°40' W 074°01'0 0.0
2017-Nov-14 23:00N 40°40' W 074°01'0 0.0
2017-Nov-14 22:30N 40°40' W 074°01'2 3.3
2017-Nov-14 22:00N 40°42' W 074°00'0 0.8
2017-Nov-14 21:30N 40°42' W 074°00'1 2.6
2017-Nov-14 21:01N 40°42' W 074°02'1 2.6
2017-Nov-14 20:31N 40°42' W 074°00'0 0.0
2017-Nov-14 20:00N 40°42' W 074°00'1 2.9
2017-Nov-14 19:30N 40°42' W 074°02'2 3.0
2017-Nov-14 19:00N 40°42' W 074°00'0 0.1
2017-Nov-14 18:30N 40°42' W 074°00'1 2.7
2017-Nov-14 18:01N 40°42' W 074°02'1 2.7
2017-Nov-14 17:30N 40°42' W 074°00'2 3.9
2017-Nov-14 17:00N 40°41' W 074°02'1 2.4
2017-Nov-14 16:30N 40°42' W 074°01'  
Track history (hours):
 
Tides and Currents Weather Stations Pressure Air Temp Water Temp Dewpoint Dewpoint Depression Visibility Wind Speed Wind Dir Waves Ship Positions

Sam Holmes

Owner: NYCL Acquisition LLC, Brooklyn, NY. More information available from US FCC via Universal Licensing System and Coast Guard Vessel Documentation Center.

Last reported at 2017-Nov-24 16:30 UTC. Time now 2017-Nov-24 16:48 UTC.
Position N 40°41' W 074°03'.

Type: Passenger vessel. MMSI: 367659970.

Date/timePositionNaut miles runAvg speedWind from/ knotsBaromVisibWave heightAir tempDewpointWater temp
2017-Nov-24 16:30N 40°41' W 074°03'2 4.1
2017-Nov-24 16:00N 40°42' W 074°00'2 4.1
2017-Nov-24 15:30N 40°40' W 074°01'0 0.0
2017-Nov-24 15:00N 40°40' W 074°01'0 0.0
2017-Nov-24 14:30N 40°40' W 074°01'0 0.0
2017-Nov-22 19:04N 40°40' W 074°01'  
2017-Nov-19 20:25N 40°40' W 074°01'3 6.5
2017-Nov-19 20:01N 40°43' W 074°01'2 4.3
2017-Nov-19 19:31N 40°41' W 074°03'2 4.1
2017-Nov-19 19:00N 40°42' W 074°00'3 6.1
2017-Nov-19 18:30N 40°45' W 074°01'3 6.2
2017-Nov-19 18:00N 40°42' W 073°60'2 3.3
2017-Nov-19 17:31N 40°43' W 074°01'2 3.8
2017-Nov-19 17:01N 40°42' W 074°02'1 1.6
2017-Nov-19 16:31N 40°42' W 074°01'1 1.9
2017-Nov-19 16:00N 40°43' W 074°01'1 2.7
2017-Nov-19 15:30N 40°42' W 074°00'3 6.6
2017-Nov-19 15:00N 40°46' W 074°00'510.7
2017-Nov-19 14:31N 40°40' W 074°01'0 0.0
2017-Nov-19 14:01N 40°40' W 074°01'0 0.0
2017-Nov-19 01:57N 40°40' W 074°01'2 4.6
2017-Nov-19 01:30N 40°42' W 074°00'1 2.6
2017-Nov-19 01:00N 40°42' W 074°02'1 2.6
2017-Nov-19 00:30N 40°42' W 074°00'0 0.0
2017-Nov-19 00:00N 40°42' W 074°00'0 0.0
2017-Nov-18 23:30N 40°42' W 074°00'0 0.0
2017-Nov-18 23:00N 40°42' W 074°00'2 3.3
2017-Nov-18 22:30N 40°42' W 074°02'2 3.3
2017-Nov-18 22:00N 40°42' W 074°00'0 0.0
2017-Nov-18 21:30N 40°42' W 074°00'1 2.5
2017-Nov-18 21:00N 40°43' W 074°02'1 2.5
2017-Nov-18 20:30N 40°42' W 074°00'0 0.0
2017-Nov-18 20:00N 40°42' W 074°00'1 2.7
2017-Nov-18 19:30N 40°42' W 074°02'1 2.7
2017-Nov-18 19:00N 40°42' W 074°00'0 0.0
2017-Nov-18 18:30N 40°42' W 074°00'2 3.3
2017-Nov-18 18:00N 40°42' W 074°02'2 3.3
2017-Nov-18 17:30N 40°42' W 074°00'0 0.0
2017-Nov-18 17:00N 40°42' W 074°00'1 2.5
2017-Nov-18 16:30N 40°42' W 074°02'1 2.5
2017-Nov-18 16:00N 40°42' W 074°00'2 4.1
2017-Nov-18 15:30N 40°40' W 074°01'0 0.0
2017-Nov-18 01:58N 40°40' W 074°01'2 4.5
2017-Nov-18 01:30N 40°42' W 074°00'1 2.7
2017-Nov-18 01:01N 40°43' W 074°02'1 2.7
2017-Nov-18 00:30N 40°42' W 074°00'0 0.0
2017-Nov-18 00:00N 40°42' W 074°00'0 0.0
2017-Nov-17 23:30N 40°42' W 074°00'0 0.0
2017-Nov-17 23:00N 40°42' W 074°00'1 2.4
2017-Nov-17 22:30N 40°43' W 074°02'1 2.4
2017-Nov-17 22:00N 40°42' W 074°00'0 0.0
2017-Nov-17 21:30N 40°42' W 074°00'1 2.5
2017-Nov-17 21:00N 40°43' W 074°02'1 2.5
2017-Nov-17 20:30N 40°42' W 074°00'0 0.0
2017-Nov-17 20:00N 40°42' W 074°00'1 2.5
2017-Nov-17 19:30N 40°42' W 074°02'1 2.5
2017-Nov-17 19:00N 40°42' W 074°00'0 0.0
2017-Nov-17 18:30N 40°42' W 074°00'1 2.5
2017-Nov-17 18:00N 40°43' W 074°02'1 2.5
2017-Nov-17 17:30N 40°42' W 074°00'0 0.0
2017-Nov-17 17:00N 40°42' W 074°00'1 2.5
2017-Nov-17 16:30N 40°43' W 074°02'1 2.5
2017-Nov-17 16:00N 40°42' W 074°00'2 4.2
2017-Nov-17 15:31N 40°40' W 074°01'0 0.0
2017-Nov-17 15:01N 40°40' W 074°01'0 0.0
2017-Nov-17 01:55N 40°40' W 074°01'2 5.1
2017-Nov-17 01:30N 40°42' W 074°00'1 2.6
2017-Nov-17 01:00N 40°43' W 074°02'1 2.6
2017-Nov-17 00:30N 40°42' W 074°00'2 4.1
2017-Nov-17 00:01N 40°40' W 074°01'0 0.0
2017-Nov-16 23:30N 40°40' W 074°01'0 0.0
2017-Nov-16 23:00N 40°40' W 074°01'2 3.2
2017-Nov-16 22:30N 40°42' W 074°00'0 1.0
2017-Nov-16 22:00N 40°42' W 074°00'0 0.0
2017-Nov-16 21:30N 40°42' W 074°00'2 3.2
2017-Nov-16 21:00N 40°42' W 074°02'2 3.1
2017-Nov-16 20:30N 40°42' W 074°00'0 0.0
2017-Nov-16 20:00N 40°42' W 074°00'1 2.5
2017-Nov-16 19:30N 40°43' W 074°02'1 2.5
2017-Nov-16 19:00N 40°42' W 074°00'0 0.0
2017-Nov-16 18:30N 40°42' W 074°00'2 3.2
2017-Nov-16 18:00N 40°42' W 074°02'2 3.2
2017-Nov-16 17:30N 40°42' W 074°00'0 0.0
2017-Nov-16 17:00N 40°42' W 074°00'1 2.5
2017-Nov-16 16:30N 40°42' W 074°02'1 2.6
2017-Nov-16 16:01N 40°42' W 074°00'2 0.1
2017-Nov-16 01:10N 40°40' W 074°01'0 2.7
2017-Nov-16 01:01N 40°41' W 074°01'1 1.2
2017-Nov-16 00:30N 40°40' W 074°01'0 0.5
2017-Nov-16 00:00N 40°40' W 074°01'2 3.8
2017-Nov-15 23:30N 40°42' W 074°00'2 4.0
2017-Nov-15 23:01N 40°40' W 074°01'0 0.2
2017-Nov-15 22:31N 40°40' W 074°01'2 3.8
2017-Nov-15 22:00N 40°42' W 074°00'2 4.0
2017-Nov-15 21:30N 40°40' W 074°01'0 0.5
2017-Nov-15 21:00N 40°40' W 074°01'2 3.8
2017-Nov-15 20:30N 40°42' W 074°00'2 3.7
2017-Nov-15 20:01N 40°40' W 074°01'0 0.3
2017-Nov-15 19:31N 40°40' W 074°01'2 3.7
2017-Nov-15 19:00N 40°42' W 074°00'2 0.3
2017-Nov-15 12:51N 40°40' W 074°01'0 0.0
2017-Nov-15 12:30N 40°40' W 074°01'0 0.0
2017-Nov-15 01:58N 40°40' W 074°01'1 2.8
2017-Nov-15 01:30N 40°42' W 074°02'2 3.3
2017-Nov-15 01:00N 40°43' W 074°01'1 2.6
2017-Nov-15 00:30N 40°42' W 074°00'2 4.1
2017-Nov-15 00:00N 40°40' W 074°01'0 0.0
2017-Nov-14 23:30N 40°40' W 074°01'0 0.0
2017-Nov-14 23:00N 40°40' W 074°01'0 0.0
2017-Nov-14 22:30N 40°40' W 074°01'2 3.3
2017-Nov-14 22:00N 40°42' W 074°00'0 0.8
2017-Nov-14 21:30N 40°42' W 074°00'1 2.6
2017-Nov-14 21:01N 40°42' W 074°02'1 2.6
2017-Nov-14 20:31N 40°42' W 074°00'0 0.0
2017-Nov-14 20:00N 40°42' W 074°00'1 2.9
2017-Nov-14 19:30N 40°42' W 074°02'2 3.0
2017-Nov-14 19:00N 40°42' W 074°00'0 0.1
2017-Nov-14 18:30N 40°42' W 074°00'1 2.7
2017-Nov-14 18:01N 40°42' W 074°02'1 2.7
2017-Nov-14 17:30N 40°42' W 074°00'2 3.9
2017-Nov-14 17:00N 40°41' W 074°02'1 2.4
2017-Nov-14 16:30N 40°42' W 074°01'  

Dump ship's entire track history